Placerville, Colorado
Current Conditions -  °F | °C
As of 6:55 PM on Friday 24 Oct 2014 (Local Time) from KTEX Reporting Station
Clear Clear  
Wind Chill: 56°   Ceiling: Unl
Heat Index: 56°   Visibility: 10mi
Dew Point: 23°   Wind: 3mph
Humidity: 28%   Direction: 100°E
Pressure: 30.49"   Gusts: NA
Location:  38.02°N, 108.05°W
Report Text: KTEX 250055Z AUTO 10003KT 10SM CLR 14/M05 A3049 RMK AO2 T01361048
Loading
Personal Weather Stations






























Interactive Weather Map
Tropical Storm Tracking
New forecast layout! Learn more

10-Day Weather Forecast

Advertisements
Track Severe Weather on mobile